Orlando, Florida
Traffic Map
Current Weather Conditions
Orlando, Florida
Overcast
Overcast
66°
Feels Like: 66°
Wind Chill: 66° Ceiling: 2900
Heat Index: 66° Visibility: 10mi
Dew Point: 64° Wind: 5mph
Humidity: 93% Direction: 30° (NNE)
Pressure: 30.35in Gusts: 0mph
Raw Report DataKORL 011153Z 03004KT 10SM BKN029 OVC090 19/18 A3035 RMK AO2 SLP282 70055 T01890178 10189 20178 51010
Traffic Incident Summary
Active as of:
Severity:
Category:
InformationThere was an issue retrieving the traffic information for this location. Please try a different location or try again shortly.
Advertisements
Track Severe Weather on mobile